Artemis — PFCB — position and weather

sailwx.info

Track history (hours):
 
Tides and Currents Weather Stations Pressure Air Temp Water Temp Dewpoint Dewpoint Depression Visibility Wind Speed Wind Dir Waves Ship Positions

Artemis (Netherlands)

Ship's website: http://www.tallship-company.com/artemis/gb_artemis.htm

Last reported at 2020-Sep-23 01:59 UTC. Time now 2020-Sep-23 03:32 UTC.
Position N 54°22' E 010°09'.

Length 59 m; draft 3.4 m.

Type: Sailing vessel. MMSI: 244875000.

Date/timePositionNaut miles runAvg speedWind from/ knotsBaromVisibWave heightAir tempDewpointWater temp
2020-Sep-23 01:59N 54°22' E 010°09'0 0.0
2020-Sep-22 22:59N 54°22' E 010°09'0 0.0
2020-Sep-22 16:26N 54°22' E 010°09'0 0.0
2020-Sep-22 15:56N 54°22' E 010°09'0 0.0
2020-Sep-22 15:29N 54°22' E 010°09'0 0.0
2020-Sep-22 11:59N 54°22' E 010°09'0 0.0
2020-Sep-22 10:59N 54°22' E 010°09'0 0.0
2020-Sep-22 09:59N 54°22' E 010°09'0 0.0
2020-Sep-22 09:29N 54°22' E 010°09'1 0.4
2020-Sep-22 08:00N 54°22' E 010°09'0 0.2
2020-Sep-22 07:30N 54°22' E 010°09'0 1.0
2020-Sep-22 07:00N 54°22' E 010°09'0 0.0
2020-Sep-22 05:00N 54°22' E 010°09'0 0.0
2020-Sep-22 04:00N 54°22' E 010°09'0 0.0
2020-Sep-22 03:30N 54°22' E 010°09'0 0.0
2020-Sep-21 22:51N 54°22' E 010°09'0 0.0
2020-Sep-21 21:54N 54°22' E 010°09'0 0.0
2020-Sep-21 21:24N 54°22' E 010°09'0 0.0
2020-Sep-21 20:24N 54°22' E 010°09'0 0.0
2020-Sep-21 17:27N 54°22' E 010°09'0 0.0
2020-Sep-21 16:00N 54°22' E 010°09'0 0.0
2020-Sep-21 14:00N 54°22' E 010°09'0 0.0
2020-Sep-21 10:30N 54°22' E 010°09'0 0.0
2020-Sep-21 08:30N 54°22' E 010°09'0 0.0
2020-Sep-21 07:27N 54°22' E 010°09'0 0.0
2020-Sep-21 05:27N 54°22' E 010°09'0 0.0
2020-Sep-21 01:30N 54°22' E 010°09'0 0.0
2020-Sep-21 00:30N 54°22' E 010°09'0 0.0
2020-Sep-20 23:30N 54°22' E 010°09'0 0.0
2020-Sep-20 19:21N 54°22' E 010°09'0 0.0
2020-Sep-20 18:51N 54°22' E 010°09'0 0.0
2020-Sep-20 17:54N 54°22' E 010°09'0 0.0
2020-Sep-20 17:30N 54°22' E 010°09'0 0.0
2020-Sep-20 17:00N 54°22' E 010°09'0 0.0
2020-Sep-20 16:30N 54°22' E 010°09'0 0.0
2020-Sep-20 16:00N 54°22' E 010°09'0 0.0
2020-Sep-20 14:27N 54°22' E 010°09'3 1.5
2020-Sep-20 12:30N 54°25' E 010°12'3 6.4
2020-Sep-20 12:00N 54°28' E 010°13'3 5.4
2020-Sep-20 11:30N 54°29' E 010°10'5 5.3
2020-Sep-20 10:30N 54°29' E 010°01'6 2.9
2020-Sep-20 08:30N 54°28' E 009°51'0 0.0
2020-Sep-20 06:59N 54°28' E 009°51'0 0.0
2020-Sep-20 05:59N 54°28' E 009°51'0 0.0
2020-Sep-19 23:59N 54°28' E 009°51'0 0.0
2020-Sep-19 20:26N 54°28' E 009°51'0 0.0
2020-Sep-19 18:50N 54°28' E 009°51'0 0.0
2020-Sep-19 17:20N 54°28' E 009°51'0 0.0
2020-Sep-19 16:11N 54°28' E 009°51'1 0.5
2020-Sep-19 14:00N 54°28' E 009°53'10 3.4
2020-Sep-19 11:01N 54°31' E 010°09'2 2.0
2020-Sep-19 10:01N 54°30' E 010°12'7 2.7
2020-Sep-19 07:31N 54°23' E 010°11'2 3.1
2020-Sep-19 06:59N 54°22' E 010°09'0 0.0
2020-Sep-19 04:59N 54°22' E 010°09'0 0.0
2020-Sep-19 04:29N 54°22' E 010°09'0 0.0
2020-Sep-19 02:29N 54°22' E 010°09'0 0.0
2020-Sep-19 01:29N 54°22' E 010°09'0 0.0
2020-Sep-18 23:29N 54°22' E 010°09'0 0.0
2020-Sep-18 22:26N 54°22' E 010°09'0 0.0
2020-Sep-18 19:59N 54°22' E 010°09'0 0.0
2020-Sep-18 18:59N 54°22' E 010°09'0 0.0
2020-Sep-18 17:59N 54°22' E 010°09'0 0.0
2020-Sep-18 14:59N 54°22' E 010°09'0 0.0
2020-Sep-18 13:29N 54°22' E 010°09'0 0.0
2020-Sep-18 10:29N 54°22' E 010°09'0 0.0
2020-Sep-18 07:29N 54°22' E 010°09'0 0.0
2020-Sep-18 06:59N 54°22' E 010°09'0 0.0
2020-Sep-18 04:59N 54°22' E 010°09'0 0.0
2020-Sep-18 02:59N 54°22' E 010°09'0 0.0
2020-Sep-18 01:29N 54°22' E 010°09'0 0.0
2020-Sep-18 00:59N 54°22' E 010°09'0 0.0
2020-Sep-17 19:29N 54°22' E 010°09'0 0.0
2020-Sep-17 16:59N 54°22' E 010°09'1 0.6
2020-Sep-17 15:31N 54°23' E 010°10'2 2.2
2020-Sep-17 14:31N 54°25' E 010°12'6 2.5
2020-Sep-17 12:00N 54°30' E 010°06'9 0.5
2020-Sep-16 16:27N 54°28' E 009°50'15 3.4
2020-Sep-16 12:00N 54°39' E 010°08'27 5.3
2020-Sep-16 07:00N 55°06' E 010°14'0 0.0
2020-Sep-16 05:00N 55°06' E 010°14'0 0.0
2020-Sep-16 04:30N 55°06' E 010°14'0 0.0
2020-Sep-16 04:00N 55°06' E 010°14'0 0.0
2020-Sep-16 03:00N 55°06' E 010°14'0 0.0
2020-Sep-15 23:57N 55°06' E 010°14'0 0.0
2020-Sep-15 23:30N 55°06' E 010°14'0 0.0
2020-Sep-15 22:30N 55°06' E 010°14'0 0.0
2020-Sep-15 20:30N 55°06' E 010°14'7 1.0
2020-Sep-15 14:00N 54°59' E 010°12'3 5.5
2020-Sep-15 13:30N 54°57' E 010°13'3 1.8
2020-Sep-15 12:00N 54°54' E 010°15'6 2.5
2020-Sep-15 09:30N 54°49' E 010°22'9 4.5
2020-Sep-15 07:30N 54°46' E 010°36'3 1.3
2020-Sep-15 05:30N 54°45' E 010°40'0 0.0
2020-Sep-15 03:00N 54°45' E 010°40'0 0.0
2020-Sep-15 02:00N 54°45' E 010°40'0 0.0
2020-Sep-14 21:00N 54°45' E 010°40'0 0.0
2020-Sep-14 20:00N 54°45' E 010°40'9 1.7
2020-Sep-14 14:30N 54°38' E 010°30'1 0.6
2020-Sep-14 12:30N 54°37' E 010°29'5 2.1
2020-Sep-14 10:00N 54°33' E 010°23'14 3.8
2020-Sep-14 06:28N 54°22' E 010°09'0 0.0
2020-Sep-14 05:28N 54°22' E 010°09'0 0.0
2020-Sep-14 04:58N 54°22' E 010°09'0 0.0
2020-Sep-14 03:58N 54°22' E 010°09'0 0.0
2020-Sep-14 03:28N 54°22' E 010°09'0 0.0
2020-Sep-14 02:58N 54°22' E 010°09'0 0.0
2020-Sep-14 02:28N 54°22' E 010°09'0 0.0
2020-Sep-14 01:58N 54°22' E 010°09'0 0.0
2020-Sep-14 00:58N 54°22' E 010°09'0 0.0
2020-Sep-13 22:28N 54°22' E 010°09'0 0.0
2020-Sep-13 21:52N 54°22' E 010°09'0 0.0
2020-Sep-13 21:22N 54°22' E 010°09'1 0.2
2020-Sep-13 16:00N 54°21' E 010°09'2 4.3
2020-Sep-13 15:30N 54°19' E 010°08'0 0.3
2020-Sep-13 14:30N 54°19' E 010°08'4 3.6
2020-Sep-13 13:30N 54°22' E 010°11'2 0.5
2020-Sep-13 09:00N 54°20' E 010°10'2 3.3
2020-Sep-13 08:30N 54°19' E 010°08'0 0.1
2020-Sep-13 05:00N 54°19' E 010°08'0 0.0
2020-Sep-13 04:30N 54°19' E 010°08'0 0.0
2020-Sep-13 03:51N 54°19' E 010°08'  
Track history (hours):
 
Tides and Currents Weather Stations Pressure Air Temp Water Temp Dewpoint Dewpoint Depression Visibility Wind Speed Wind Dir Waves Ship Positions

Artemis (Netherlands)

Ship's website: http://www.tallship-company.com/artemis/gb_artemis.htm

Last reported at 2020-Sep-23 01:59 UTC. Time now 2020-Sep-23 03:32 UTC.
Position N 54°22' E 010°09'.

Length 59 m; draft 3.4 m.

Type: Sailing vessel. MMSI: 244875000.

Date/timePositionNaut miles runAvg speedWind from/ knotsBaromVisibWave heightAir tempDewpointWater temp
2020-Sep-23 01:59N 54°22' E 010°09'0 0.0
2020-Sep-22 22:59N 54°22' E 010°09'0 0.0
2020-Sep-22 16:26N 54°22' E 010°09'0 0.0
2020-Sep-22 15:56N 54°22' E 010°09'0 0.0
2020-Sep-22 15:29N 54°22' E 010°09'0 0.0
2020-Sep-22 11:59N 54°22' E 010°09'0 0.0
2020-Sep-22 10:59N 54°22' E 010°09'0 0.0
2020-Sep-22 09:59N 54°22' E 010°09'0 0.0
2020-Sep-22 09:29N 54°22' E 010°09'1 0.4
2020-Sep-22 08:00N 54°22' E 010°09'0 0.2
2020-Sep-22 07:30N 54°22' E 010°09'0 1.0
2020-Sep-22 07:00N 54°22' E 010°09'0 0.0
2020-Sep-22 05:00N 54°22' E 010°09'0 0.0
2020-Sep-22 04:00N 54°22' E 010°09'0 0.0
2020-Sep-22 03:30N 54°22' E 010°09'0 0.0
2020-Sep-21 22:51N 54°22' E 010°09'0 0.0
2020-Sep-21 21:54N 54°22' E 010°09'0 0.0
2020-Sep-21 21:24N 54°22' E 010°09'0 0.0
2020-Sep-21 20:24N 54°22' E 010°09'0 0.0
2020-Sep-21 17:27N 54°22' E 010°09'0 0.0
2020-Sep-21 16:00N 54°22' E 010°09'0 0.0
2020-Sep-21 14:00N 54°22' E 010°09'0 0.0
2020-Sep-21 10:30N 54°22' E 010°09'0 0.0
2020-Sep-21 08:30N 54°22' E 010°09'0 0.0
2020-Sep-21 07:27N 54°22' E 010°09'0 0.0
2020-Sep-21 05:27N 54°22' E 010°09'0 0.0
2020-Sep-21 01:30N 54°22' E 010°09'0 0.0
2020-Sep-21 00:30N 54°22' E 010°09'0 0.0
2020-Sep-20 23:30N 54°22' E 010°09'0 0.0
2020-Sep-20 19:21N 54°22' E 010°09'0 0.0
2020-Sep-20 18:51N 54°22' E 010°09'0 0.0
2020-Sep-20 17:54N 54°22' E 010°09'0 0.0
2020-Sep-20 17:30N 54°22' E 010°09'0 0.0
2020-Sep-20 17:00N 54°22' E 010°09'0 0.0
2020-Sep-20 16:30N 54°22' E 010°09'0 0.0
2020-Sep-20 16:00N 54°22' E 010°09'0 0.0
2020-Sep-20 14:27N 54°22' E 010°09'3 1.5
2020-Sep-20 12:30N 54°25' E 010°12'3 6.4
2020-Sep-20 12:00N 54°28' E 010°13'3 5.4
2020-Sep-20 11:30N 54°29' E 010°10'5 5.3
2020-Sep-20 10:30N 54°29' E 010°01'6 2.9
2020-Sep-20 08:30N 54°28' E 009°51'0 0.0
2020-Sep-20 06:59N 54°28' E 009°51'0 0.0
2020-Sep-20 05:59N 54°28' E 009°51'0 0.0
2020-Sep-19 23:59N 54°28' E 009°51'0 0.0
2020-Sep-19 20:26N 54°28' E 009°51'0 0.0
2020-Sep-19 18:50N 54°28' E 009°51'0 0.0
2020-Sep-19 17:20N 54°28' E 009°51'0 0.0
2020-Sep-19 16:11N 54°28' E 009°51'1 0.5
2020-Sep-19 14:00N 54°28' E 009°53'10 3.4
2020-Sep-19 11:01N 54°31' E 010°09'2 2.0
2020-Sep-19 10:01N 54°30' E 010°12'7 2.7
2020-Sep-19 07:31N 54°23' E 010°11'2 3.1
2020-Sep-19 06:59N 54°22' E 010°09'0 0.0
2020-Sep-19 04:59N 54°22' E 010°09'0 0.0
2020-Sep-19 04:29N 54°22' E 010°09'0 0.0
2020-Sep-19 02:29N 54°22' E 010°09'0 0.0
2020-Sep-19 01:29N 54°22' E 010°09'0 0.0
2020-Sep-18 23:29N 54°22' E 010°09'0 0.0
2020-Sep-18 22:26N 54°22' E 010°09'0 0.0
2020-Sep-18 19:59N 54°22' E 010°09'0 0.0
2020-Sep-18 18:59N 54°22' E 010°09'0 0.0
2020-Sep-18 17:59N 54°22' E 010°09'0 0.0
2020-Sep-18 14:59N 54°22' E 010°09'0 0.0
2020-Sep-18 13:29N 54°22' E 010°09'0 0.0
2020-Sep-18 10:29N 54°22' E 010°09'0 0.0
2020-Sep-18 07:29N 54°22' E 010°09'0 0.0
2020-Sep-18 06:59N 54°22' E 010°09'0 0.0
2020-Sep-18 04:59N 54°22' E 010°09'0 0.0
2020-Sep-18 02:59N 54°22' E 010°09'0 0.0
2020-Sep-18 01:29N 54°22' E 010°09'0 0.0
2020-Sep-18 00:59N 54°22' E 010°09'0 0.0
2020-Sep-17 19:29N 54°22' E 010°09'0 0.0
2020-Sep-17 16:59N 54°22' E 010°09'1 0.6
2020-Sep-17 15:31N 54°23' E 010°10'2 2.2
2020-Sep-17 14:31N 54°25' E 010°12'6 2.5
2020-Sep-17 12:00N 54°30' E 010°06'9 0.5
2020-Sep-16 16:27N 54°28' E 009°50'15 3.4
2020-Sep-16 12:00N 54°39' E 010°08'27 5.3
2020-Sep-16 07:00N 55°06' E 010°14'0 0.0
2020-Sep-16 05:00N 55°06' E 010°14'0 0.0
2020-Sep-16 04:30N 55°06' E 010°14'0 0.0
2020-Sep-16 04:00N 55°06' E 010°14'0 0.0
2020-Sep-16 03:00N 55°06' E 010°14'0 0.0
2020-Sep-15 23:57N 55°06' E 010°14'0 0.0
2020-Sep-15 23:30N 55°06' E 010°14'0 0.0
2020-Sep-15 22:30N 55°06' E 010°14'0 0.0
2020-Sep-15 20:30N 55°06' E 010°14'7 1.0
2020-Sep-15 14:00N 54°59' E 010°12'3 5.5
2020-Sep-15 13:30N 54°57' E 010°13'3 1.8
2020-Sep-15 12:00N 54°54' E 010°15'6 2.5
2020-Sep-15 09:30N 54°49' E 010°22'9 4.5
2020-Sep-15 07:30N 54°46' E 010°36'3 1.3
2020-Sep-15 05:30N 54°45' E 010°40'0 0.0
2020-Sep-15 03:00N 54°45' E 010°40'0 0.0
2020-Sep-15 02:00N 54°45' E 010°40'0 0.0
2020-Sep-14 21:00N 54°45' E 010°40'0 0.0
2020-Sep-14 20:00N 54°45' E 010°40'9 1.7
2020-Sep-14 14:30N 54°38' E 010°30'1 0.6
2020-Sep-14 12:30N 54°37' E 010°29'5 2.1
2020-Sep-14 10:00N 54°33' E 010°23'14 3.8
2020-Sep-14 06:28N 54°22' E 010°09'0 0.0
2020-Sep-14 05:28N 54°22' E 010°09'0 0.0
2020-Sep-14 04:58N 54°22' E 010°09'0 0.0
2020-Sep-14 03:58N 54°22' E 010°09'0 0.0
2020-Sep-14 03:28N 54°22' E 010°09'0 0.0
2020-Sep-14 02:58N 54°22' E 010°09'0 0.0
2020-Sep-14 02:28N 54°22' E 010°09'0 0.0
2020-Sep-14 01:58N 54°22' E 010°09'0 0.0
2020-Sep-14 00:58N 54°22' E 010°09'0 0.0
2020-Sep-13 22:28N 54°22' E 010°09'0 0.0
2020-Sep-13 21:52N 54°22' E 010°09'0 0.0
2020-Sep-13 21:22N 54°22' E 010°09'1 0.2
2020-Sep-13 16:00N 54°21' E 010°09'2 4.3
2020-Sep-13 15:30N 54°19' E 010°08'0 0.3
2020-Sep-13 14:30N 54°19' E 010°08'4 3.6
2020-Sep-13 13:30N 54°22' E 010°11'2 0.5
2020-Sep-13 09:00N 54°20' E 010°10'2 3.3
2020-Sep-13 08:30N 54°19' E 010°08'0 0.1
2020-Sep-13 05:00N 54°19' E 010°08'0 0.0
2020-Sep-13 04:30N 54°19' E 010°08'0 0.0
2020-Sep-13 03:51N 54°19' E 010°08'  

Dump ship's entire track history